sensor_id;sensor_type;location;lat;lon;timestamp;P1;durP1;ratioP1;P2;durP2;ratioP2
12271;SDS011;6198;51.446;6.698;2023-12-20T00:01:35;86.57;;;48.03;;
12271;SDS011;6198;51.446;6.698;2023-12-20T00:04:01;68.93;;;35.93;;
12271;SDS011;6198;51.446;6.698;2023-12-20T00:06:28;56.90;;;27.77;;
12271;SDS011;6198;51.446;6.698;2023-12-20T00:08:54;62.50;;;32.63;;
12271;SDS011;6198;51.446;6.698;2023-12-20T00:11:23;59.93;;;30.60;;
12271;SDS011;6198;51.446;6.698;2023-12-20T00:13:49;52.37;;;22.43;;
12271;SDS011;6198;51.446;6.698;2023-12-20T00:16:15;52.10;;;24.47;;
12271;SDS011;6198;51.446;6.698;2023-12-20T00:18:41;50.00;;;26.20;;
12271;SDS011;6198;51.446;6.698;2023-12-20T00:21:07;69.20;;;37.77;;
12271;SDS011;6198;51.446;6.698;2023-12-20T00:23:36;40.73;;;18.30;;
12271;SDS011;6198;51.446;6.698;2023-12-20T00:26:02;48.73;;;20.57;;
12271;SDS011;6198;51.446;6.698;2023-12-20T00:28:30;62.90;;;34.63;;
12271;SDS011;6198;51.446;6.698;2023-12-20T00:30:56;50.07;;;24.10;;
12271;SDS011;6198;51.446;6.698;2023-12-20T00:33:22;64.27;;;32.03;;
12271;SDS011;6198;51.446;6.698;2023-12-20T00:35:48;83.30;;;40.43;;
12271;SDS011;6198;51.446;6.698;2023-12-20T00:38:14;72.90;;;39.47;;
12271;SDS011;6198;51.446;6.698;2023-12-20T00:40:40;76.40;;;36.10;;
12271;SDS011;6198;51.446;6.698;2023-12-20T00:43:06;54.07;;;26.00;;
12271;SDS011;6198;51.446;6.698;2023-12-20T00:45:32;80.77;;;40.87;;
12271;SDS011;6198;51.446;6.698;2023-12-20T00:47:58;57.57;;;27.17;;
12271;SDS011;6198;51.446;6.698;2023-12-20T00:50:24;52.50;;;25.63;;
12271;SDS011;6198;51.446;6.698;2023-12-20T00:52:50;46.67;;;22.07;;
12271;SDS011;6198;51.446;6.698;2023-12-20T00:55:16;62.60;;;26.77;;
12271;SDS011;6198;51.446;6.698;2023-12-20T00:57:42;76.07;;;39.23;;
12271;SDS011;6198;51.446;6.698;2023-12-20T01:00:10;54.93;;;26.53;;
12271;SDS011;6198;51.446;6.698;2023-12-20T01:02:38;57.37;;;30.23;;
12271;SDS011;6198;51.446;6.698;2023-12-20T01:05:04;50.47;;;26.20;;
12271;SDS011;6198;51.446;6.698;2023-12-20T01:07:30;66.83;;;35.17;;
12271;SDS011;6198;51.446;6.698;2023-12-20T01:09:56;48.40;;;23.70;;
12271;SDS011;6198;51.446;6.698;2023-12-20T01:12:22;64.00;;;27.57;;
12271;SDS011;6198;51.446;6.698;2023-12-20T01:14:48;62.57;;;31.87;;
12271;SDS011;6198;51.446;6.698;2023-12-20T01:17:17;67.80;;;33.40;;
12271;SDS011;6198;51.446;6.698;2023-12-20T01:19:46;58.80;;;28.07;;
12271;SDS011;6198;51.446;6.698;2023-12-20T01:22:12;68.27;;;34.87;;
12271;SDS011;6198;51.446;6.698;2023-12-20T01:24:38;61.97;;;23.93;;
12271;SDS011;6198;51.446;6.698;2023-12-20T01:27:04;57.90;;;27.77;;
12271;SDS011;6198;51.446;6.698;2023-12-20T01:29:30;51.93;;;21.83;;
12271;SDS011;6198;51.446;6.698;2023-12-20T01:31:56;45.87;;;21.63;;
12271;SDS011;6198;51.446;6.698;2023-12-20T01:34:22;66.60;;;33.03;;
12271;SDS011;6198;51.446;6.698;2023-12-20T01:36:48;56.03;;;28.13;;
12271;SDS011;6198;51.446;6.698;2023-12-20T01:39:14;71.57;;;32.17;;
12271;SDS011;6198;51.446;6.698;2023-12-20T01:41:40;77.50;;;31.20;;
12271;SDS011;6198;51.446;6.698;2023-12-20T01:44:06;67.00;;;29.60;;
12271;SDS011;6198;51.446;6.698;2023-12-20T01:46:32;94.00;;;42.00;;
12271;SDS011;6198;51.446;6.698;2023-12-20T01:48:58;47.40;;;21.93;;
12271;SDS011;6198;51.446;6.698;2023-12-20T01:51:27;43.93;;;20.50;;
12271;SDS011;6198;51.446;6.698;2023-12-20T01:53:54;41.70;;;20.10;;
12271;SDS011;6198;51.446;6.698;2023-12-20T01:56:20;43.90;;;17.27;;
12271;SDS011;6198;51.446;6.698;2023-12-20T01:58:47;34.03;;;16.07;;
12271;SDS011;6198;51.446;6.698;2023-12-20T02:01:13;38.53;;;16.13;;
12271;SDS011;6198;51.446;6.698;2023-12-20T02:03:40;39.37;;;16.77;;
12271;SDS011;6198;51.446;6.698;2023-12-20T02:06:08;43.30;;;16.53;;
12271;SDS011;6198;51.446;6.698;2023-12-20T02:08:35;32.80;;;14.97;;
12271;SDS011;6198;51.446;6.698;2023-12-20T02:11:01;36.67;;;17.50;;
12271;SDS011;6198;51.446;6.698;2023-12-20T02:13:27;45.57;;;17.80;;
12271;SDS011;6198;51.446;6.698;2023-12-20T02:15:54;34.97;;;16.60;;
12271;SDS011;6198;51.446;6.698;2023-12-20T02:18:20;37.20;;;16.97;;
12271;SDS011;6198;51.446;6.698;2023-12-20T02:20:46;35.90;;;17.13;;
12271;SDS011;6198;51.446;6.698;2023-12-20T02:23:12;30.00;;;15.33;;
12271;SDS011;6198;51.446;6.698;2023-12-20T02:25:38;39.97;;;15.30;;
12271;SDS011;6198;51.446;6.698;2023-12-20T02:28:04;36.57;;;16.23;;
12271;SDS011;6198;51.446;6.698;2023-12-20T02:30:31;42.77;;;15.83;;
12271;SDS011;6198;51.446;6.698;2023-12-20T02:32:58;31.73;;;13.73;;
12271;SDS011;6198;51.446;6.698;2023-12-20T02:35:25;30.47;;;14.57;;
12271;SDS011;6198;51.446;6.698;2023-12-20T02:37:51;31.53;;;14.07;;
12271;SDS011;6198;51.446;6.698;2023-12-20T02:40:17;31.10;;;12.80;;
12271;SDS011;6198;51.446;6.698;2023-12-20T02:42:43;26.03;;;11.87;;
12271;SDS011;6198;51.446;6.698;2023-12-20T02:45:09;36.63;;;11.73;;
12271;SDS011;6198;51.446;6.698;2023-12-20T02:47:35;29.57;;;12.43;;
12271;SDS011;6198;51.446;6.698;2023-12-20T02:50:01;26.23;;;11.47;;
12271;SDS011;6198;51.446;6.698;2023-12-20T02:52:28;28.10;;;11.37;;
12271;SDS011;6198;51.446;6.698;2023-12-20T02:54:54;31.70;;;11.53;;
12271;SDS011;6198;51.446;6.698;2023-12-20T02:57:20;30.80;;;10.00;;
12271;SDS011;6198;51.446;6.698;2023-12-20T02:59:46;25.57;;;10.57;;
12271;SDS011;6198;51.446;6.698;2023-12-20T03:02:12;26.23;;;9.70;;
12271;SDS011;6198;51.446;6.698;2023-12-20T03:04:38;30.90;;;11.20;;
12271;SDS011;6198;51.446;6.698;2023-12-20T03:07:04;25.43;;;9.13;;
12271;SDS011;6198;51.446;6.698;2023-12-20T03:09:30;21.77;;;8.33;;
12271;SDS011;6198;51.446;6.698;2023-12-20T03:11:56;33.73;;;9.27;;
12271;SDS011;6198;51.446;6.698;2023-12-20T03:14:22;20.40;;;7.70;;
12271;SDS011;6198;51.446;6.698;2023-12-20T03:16:51;25.20;;;7.17;;
12271;SDS011;6198;51.446;6.698;2023-12-20T03:19:20;32.60;;;8.40;;
12271;SDS011;6198;51.446;6.698;2023-12-20T03:21:45;16.27;;;6.73;;
12271;SDS011;6198;51.446;6.698;2023-12-20T03:24:11;21.13;;;6.57;;
12271;SDS011;6198;51.446;6.698;2023-12-20T03:26:37;16.40;;;6.23;;
12271;SDS011;6198;51.446;6.698;2023-12-20T03:29:03;25.60;;;7.13;;
12271;SDS011;6198;51.446;6.698;2023-12-20T03:31:29;27.00;;;6.40;;
12271;SDS011;6198;51.446;6.698;2023-12-20T03:33:55;21.33;;;5.80;;
12271;SDS011;6198;51.446;6.698;2023-12-20T03:36:21;17.50;;;5.07;;
12271;SDS011;6198;51.446;6.698;2023-12-20T03:38:47;26.80;;;5.70;;
12271;SDS011;6198;51.446;6.698;2023-12-20T03:41:13;14.27;;;4.57;;
12271;SDS011;6198;51.446;6.698;2023-12-20T03:43:39;15.43;;;4.57;;
12271;SDS011;6198;51.446;6.698;2023-12-20T03:46:07;20.53;;;5.07;;
12271;SDS011;6198;51.446;6.698;2023-12-20T03:48:33;18.50;;;6.30;;
12271;SDS011;6198;51.446;6.698;2023-12-20T03:50:59;17.80;;;5.60;;
12271;SDS011;6198;51.446;6.698;2023-12-20T03:53:25;16.43;;;5.13;;
12271;SDS011;6198;51.446;6.698;2023-12-20T03:55:51;22.03;;;5.37;;
12271;SDS011;6198;51.446;6.698;2023-12-20T03:58:17;21.00;;;5.10;;
12271;SDS011;6198;51.446;6.698;2023-12-20T04:00:43;22.23;;;5.33;;
12271;SDS011;6198;51.446;6.698;2023-12-20T04:03:09;25.30;;;5.83;;
12271;SDS011;6198;51.446;6.698;2023-12-20T04:05:38;21.53;;;4.77;;
12271;SDS011;6198;51.446;6.698;2023-12-20T04:08:04;21.20;;;5.10;;
12271;SDS011;6198;51.446;6.698;2023-12-20T04:10:30;25.13;;;5.07;;
12271;SDS011;6198;51.446;6.698;2023-12-20T04:12:56;20.67;;;5.30;;
12271;SDS011;6198;51.446;6.698;2023-12-20T04:15:22;16.53;;;4.90;;
12271;SDS011;6198;51.446;6.698;2023-12-20T04:17:51;25.43;;;4.87;;
12271;SDS011;6198;51.446;6.698;2023-12-20T04:20:17;14.40;;;4.70;;
12271;SDS011;6198;51.446;6.698;2023-12-20T04:22:43;21.27;;;6.03;;
12271;SDS011;6198;51.446;6.698;2023-12-20T04:25:09;20.10;;;5.83;;
12271;SDS011;6198;51.446;6.698;2023-12-20T04:27:38;13.63;;;5.20;;
12271;SDS011;6198;51.446;6.698;2023-12-20T04:30:04;21.77;;;6.30;;
12271;SDS011;6198;51.446;6.698;2023-12-20T04:32:30;17.37;;;5.23;;
12271;SDS011;6198;51.446;6.698;2023-12-20T04:34:56;28.67;;;6.07;;
12271;SDS011;6198;51.446;6.698;2023-12-20T04:37:22;17.10;;;5.00;;
12271;SDS011;6198;51.446;6.698;2023-12-20T04:39:48;16.13;;;5.10;;
12271;SDS011;6198;51.446;6.698;2023-12-20T04:42:15;15.63;;;5.60;;
12271;SDS011;6198;51.446;6.698;2023-12-20T04:44:41;17.13;;;5.57;;
12271;SDS011;6198;51.446;6.698;2023-12-20T04:47:08;17.23;;;6.07;;
12271;SDS011;6198;51.446;6.698;2023-12-20T04:49:34;21.17;;;5.93;;
12271;SDS011;6198;51.446;6.698;2023-12-20T04:52:00;20.37;;;7.03;;
12271;SDS011;6198;51.446;6.698;2023-12-20T04:54:26;22.70;;;6.23;;
12271;SDS011;6198;51.446;6.698;2023-12-20T04:56:52;23.33;;;6.77;;
12271;SDS011;6198;51.446;6.698;2023-12-20T04:59:18;27.77;;;7.03;;
12271;SDS011;6198;51.446;6.698;2023-12-20T05:01:44;25.60;;;7.17;;
12271;SDS011;6198;51.446;6.698;2023-12-20T05:04:10;17.27;;;6.90;;
12271;SDS011;6198;51.446;6.698;2023-12-20T05:06:36;22.63;;;7.80;;
12271;SDS011;6198;51.446;6.698;2023-12-20T05:09:02;19.93;;;7.80;;
12271;SDS011;6198;51.446;6.698;2023-12-20T05:11:28;23.80;;;7.27;;
12271;SDS011;6198;51.446;6.698;2023-12-20T05:13:55;20.77;;;8.13;;
12271;SDS011;6198;51.446;6.698;2023-12-20T05:16:21;24.97;;;8.17;;
12271;SDS011;6198;51.446;6.698;2023-12-20T05:18:48;24.90;;;8.33;;
12271;SDS011;6198;51.446;6.698;2023-12-20T05:21:15;23.60;;;8.60;;
12271;SDS011;6198;51.446;6.698;2023-12-20T05:23:41;21.60;;;8.73;;
12271;SDS011;6198;51.446;6.698;2023-12-20T05:26:07;29.10;;;9.90;;
12271;SDS011;6198;51.446;6.698;2023-12-20T05:28:33;21.37;;;8.30;;
12271;SDS011;6198;51.446;6.698;2023-12-20T05:30:59;28.07;;;9.03;;
12271;SDS011;6198;51.446;6.698;2023-12-20T05:33:25;20.80;;;8.83;;
12271;SDS011;6198;51.446;6.698;2023-12-20T05:35:51;23.63;;;8.23;;
12271;SDS011;6198;51.446;6.698;2023-12-20T05:38:17;21.87;;;8.20;;
12271;SDS011;6198;51.446;6.698;2023-12-20T05:40:43;31.10;;;9.00;;
12271;SDS011;6198;51.446;6.698;2023-12-20T05:43:09;26.20;;;7.93;;
12271;SDS011;6198;51.446;6.698;2023-12-20T05:45:35;28.80;;;8.43;;
12271;SDS011;6198;51.446;6.698;2023-12-20T05:48:01;23.27;;;8.43;;
12271;SDS011;6198;51.446;6.698;2023-12-20T05:50:27;24.67;;;7.77;;
12271;SDS011;6198;51.446;6.698;2023-12-20T05:52:53;25.83;;;7.80;;
12271;SDS011;6198;51.446;6.698;2023-12-20T05:55:20;24.07;;;9.03;;
12271;SDS011;6198;51.446;6.698;2023-12-20T05:57:46;24.93;;;8.77;;
12271;SDS011;6198;51.446;6.698;2023-12-20T06:00:12;22.77;;;8.43;;
12271;SDS011;6198;51.446;6.698;2023-12-20T06:02:38;18.67;;;8.13;;
12271;SDS011;6198;51.446;6.698;2023-12-20T06:05:05;23.83;;;8.10;;
12271;SDS011;6198;51.446;6.698;2023-12-20T06:07:31;22.30;;;7.73;;
12271;SDS011;6198;51.446;6.698;2023-12-20T06:09:57;24.83;;;8.13;;
12271;SDS011;6198;51.446;6.698;2023-12-20T06:12:23;21.50;;;8.70;;
12271;SDS011;6198;51.446;6.698;2023-12-20T06:14:49;27.47;;;8.17;;
12271;SDS011;6198;51.446;6.698;2023-12-20T06:17:15;22.90;;;8.07;;
12271;SDS011;6198;51.446;6.698;2023-12-20T06:19:41;18.13;;;7.43;;
12271;SDS011;6198;51.446;6.698;2023-12-20T06:22:09;21.90;;;7.77;;
12271;SDS011;6198;51.446;6.698;2023-12-20T06:24:36;29.60;;;8.17;;
12271;SDS011;6198;51.446;6.698;2023-12-20T06:27:02;24.33;;;7.23;;
12271;SDS011;6198;51.446;6.698;2023-12-20T06:29:28;23.47;;;8.00;;
12271;SDS011;6198;51.446;6.698;2023-12-20T06:31:53;19.40;;;7.57;;
12271;SDS011;6198;51.446;6.698;2023-12-20T06:34:19;16.67;;;7.47;;
12271;SDS011;6198;51.446;6.698;2023-12-20T06:36:45;22.57;;;7.40;;
12271;SDS011;6198;51.446;6.698;2023-12-20T06:39:11;20.00;;;7.20;;
12271;SDS011;6198;51.446;6.698;2023-12-20T06:41:39;25.20;;;8.57;;
12271;SDS011;6198;51.446;6.698;2023-12-20T06:44:05;23.52;;;8.38;;
12271;SDS011;6198;51.446;6.698;2023-12-20T06:46:31;25.50;;;8.45;;
12271;SDS011;6198;51.446;6.698;2023-12-20T06:48:57;23.50;;;8.18;;
12271;SDS011;6198;51.446;6.698;2023-12-20T06:51:23;22.15;;;7.72;;
12271;SDS011;6198;51.446;6.698;2023-12-20T06:53:50;18.70;;;7.72;;
12271;SDS011;6198;51.446;6.698;2023-12-20T06:56:16;22.13;;;7.65;;
12271;SDS011;6198;51.446;6.698;2023-12-20T06:58:42;20.27;;;6.97;;
12271;SDS011;6198;51.446;6.698;2023-12-20T07:01:12;18.85;;;6.93;;
12271;SDS011;6198;51.446;6.698;2023-12-20T07:03:38;27.83;;;7.90;;
12271;SDS011;6198;51.446;6.698;2023-12-20T07:06:05;24.90;;;7.57;;
12271;SDS011;6198;51.446;6.698;2023-12-20T07:08:30;16.10;;;6.15;;
12271;SDS011;6198;51.446;6.698;2023-12-20T07:10:57;19.98;;;6.82;;
12271;SDS011;6198;51.446;6.698;2023-12-20T07:13:23;18.90;;;6.65;;
12271;SDS011;6198;51.446;6.698;2023-12-20T07:15:49;20.60;;;7.38;;
12271;SDS011;6198;51.446;6.698;2023-12-20T07:18:14;22.50;;;7.35;;
12271;SDS011;6198;51.446;6.698;2023-12-20T07:20:40;22.83;;;7.15;;
12271;SDS011;6198;51.446;6.698;2023-12-20T07:23:06;25.60;;;7.70;;
12271;SDS011;6198;51.446;6.698;2023-12-20T07:25:32;23.50;;;7.32;;
12271;SDS011;6198;51.446;6.698;2023-12-20T07:27:58;20.70;;;6.83;;
12271;SDS011;6198;51.446;6.698;2023-12-20T07:30:24;22.10;;;7.40;;
12271;SDS011;6198;51.446;6.698;2023-12-20T07:32:50;15.95;;;6.70;;
12271;SDS011;6198;51.446;6.698;2023-12-20T07:35:17;21.95;;;7.63;;
12271;SDS011;6198;51.446;6.698;2023-12-20T07:37:43;22.73;;;7.03;;
12271;SDS011;6198;51.446;6.698;2023-12-20T07:40:09;25.27;;;7.00;;
12271;SDS011;6198;51.446;6.698;2023-12-20T07:42:35;19.98;;;6.95;;
12271;SDS011;6198;51.446;6.698;2023-12-20T07:45:01;19.35;;;7.05;;
12271;SDS011;6198;51.446;6.698;2023-12-20T07:47:27;24.70;;;7.35;;
12271;SDS011;6198;51.446;6.698;2023-12-20T07:49:53;19.63;;;6.90;;
12271;SDS011;6198;51.446;6.698;2023-12-20T07:52:19;18.13;;;7.20;;
12271;SDS011;6198;51.446;6.698;2023-12-20T07:54:47;20.55;;;7.35;;
12271;SDS011;6198;51.446;6.698;2023-12-20T07:57:13;23.13;;;7.38;;
12271;SDS011;6198;51.446;6.698;2023-12-20T07:59:39;20.45;;;7.10;;
12271;SDS011;6198;51.446;6.698;2023-12-20T08:02:06;17.88;;;6.63;;
12271;SDS011;6198;51.446;6.698;2023-12-20T08:04:32;20.15;;;7.15;;
12271;SDS011;6198;51.446;6.698;2023-12-20T08:06:58;19.50;;;7.25;;
12271;SDS011;6198;51.446;6.698;2023-12-20T08:09:25;22.63;;;7.50;;
12271;SDS011;6198;51.446;6.698;2023-12-20T08:11:51;20.50;;;6.90;;
12271;SDS011;6198;51.446;6.698;2023-12-20T08:14:17;25.67;;;7.60;;
12271;SDS011;6198;51.446;6.698;2023-12-20T08:16:43;22.77;;;7.90;;
12271;SDS011;6198;51.446;6.698;2023-12-20T08:19:09;24.35;;;8.30;;
12271;SDS011;6198;51.446;6.698;2023-12-20T08:21:35;24.33;;;7.85;;
12271;SDS011;6198;51.446;6.698;2023-12-20T08:24:00;24.35;;;8.20;;
12271;SDS011;6198;51.446;6.698;2023-12-20T08:26:26;28.73;;;10.07;;
12271;SDS011;6198;51.446;6.698;2023-12-20T08:28:52;21.13;;;7.18;;
12271;SDS011;6198;51.446;6.698;2023-12-20T08:31:19;21.42;;;7.45;;
12271;SDS011;6198;51.446;6.698;2023-12-20T08:33:46;23.77;;;7.65;;
12271;SDS011;6198;51.446;6.698;2023-12-20T08:36:12;18.27;;;6.93;;
12271;SDS011;6198;51.446;6.698;2023-12-20T08:38:38;19.42;;;6.40;;
12271;SDS011;6198;51.446;6.698;2023-12-20T08:41:04;23.40;;;6.65;;
12271;SDS011;6198;51.446;6.698;2023-12-20T08:43:31;19.73;;;6.97;;
12271;SDS011;6198;51.446;6.698;2023-12-20T08:45:57;17.75;;;5.63;;
12271;SDS011;6198;51.446;6.698;2023-12-20T08:48:23;16.42;;;4.95;;
12271;SDS011;6198;51.446;6.698;2023-12-20T08:50:49;17.48;;;5.32;;
12271;SDS011;6198;51.446;6.698;2023-12-20T08:53:17;19.73;;;5.78;;
12271;SDS011;6198;51.446;6.698;2023-12-20T08:55:43;18.38;;;5.53;;
12271;SDS011;6198;51.446;6.698;2023-12-20T08:58:09;23.23;;;6.25;;
12271;SDS011;6198;51.446;6.698;2023-12-20T09:00:35;20.17;;;5.68;;
12271;SDS011;6198;51.446;6.698;2023-12-20T09:03:01;19.05;;;5.55;;
12271;SDS011;6198;51.446;6.698;2023-12-20T09:05:27;19.95;;;6.00;;
12271;SDS011;6198;51.446;6.698;2023-12-20T09:07:53;20.33;;;6.15;;
12271;SDS011;6198;51.446;6.698;2023-12-20T09:10:19;24.70;;;6.22;;
12271;SDS011;6198;51.446;6.698;2023-12-20T09:12:50;17.77;;;5.67;;
12271;SDS011;6198;51.446;6.698;2023-12-20T09:15:21;19.20;;;6.07;;
12271;SDS011;6198;51.446;6.698;2023-12-20T09:17:47;22.20;;;6.43;;
12271;SDS011;6198;51.446;6.698;2023-12-20T09:20:13;19.13;;;5.30;;
12271;SDS011;6198;51.446;6.698;2023-12-20T09:22:39;19.65;;;6.15;;
12271;SDS011;6198;51.446;6.698;2023-12-20T09:25:06;21.67;;;6.32;;
12271;SDS011;6198;51.446;6.698;2023-12-20T09:27:33;19.17;;;5.88;;
12271;SDS011;6198;51.446;6.698;2023-12-20T09:29:59;24.45;;;6.35;;
12271;SDS011;6198;51.446;6.698;2023-12-20T09:32:25;19.17;;;6.78;;
12271;SDS011;6198;51.446;6.698;2023-12-20T09:34:51;16.10;;;6.47;;
12271;SDS011;6198;51.446;6.698;2023-12-20T09:37:17;17.77;;;6.00;;
12271;SDS011;6198;51.446;6.698;2023-12-20T09:39:43;21.70;;;6.50;;
12271;SDS011;6198;51.446;6.698;2023-12-20T09:42:09;21.63;;;6.40;;
12271;SDS011;6198;51.446;6.698;2023-12-20T09:44:37;17.27;;;6.17;;
12271;SDS011;6198;51.446;6.698;2023-12-20T09:47:07;20.63;;;6.30;;
12271;SDS011;6198;51.446;6.698;2023-12-20T09:49:33;17.83;;;6.35;;
12271;SDS011;6198;51.446;6.698;2023-12-20T09:52:00;21.77;;;6.30;;
12271;SDS011;6198;51.446;6.698;2023-12-20T09:54:26;17.88;;;5.95;;
12271;SDS011;6198;51.446;6.698;2023-12-20T09:56:54;16.42;;;6.03;;
12271;SDS011;6198;51.446;6.698;2023-12-20T09:59:20;19.80;;;6.50;;
12271;SDS011;6198;51.446;6.698;2023-12-20T10:01:46;22.65;;;6.47;;
12271;SDS011;6198;51.446;6.698;2023-12-20T10:04:12;21.47;;;6.30;;
12271;SDS011;6198;51.446;6.698;2023-12-20T10:06:39;20.55;;;6.35;;
12271;SDS011;6198;51.446;6.698;2023-12-20T10:09:05;16.65;;;5.53;;
12271;SDS011;6198;51.446;6.698;2023-12-20T10:11:31;19.85;;;6.07;;
12271;SDS011;6198;51.446;6.698;2023-12-20T10:14:00;17.75;;;5.88;;
12271;SDS011;6198;51.446;6.698;2023-12-20T10:16:27;16.92;;;6.03;;
12271;SDS011;6198;51.446;6.698;2023-12-20T10:18:53;20.27;;;5.77;;
12271;SDS011;6198;51.446;6.698;2023-12-20T10:21:19;19.45;;;5.90;;
12271;SDS011;6198;51.446;6.698;2023-12-20T10:23:45;22.25;;;5.82;;
12271;SDS011;6198;51.446;6.698;2023-12-20T10:26:21;19.23;;;6.03;;
12271;SDS011;6198;51.446;6.698;2023-12-20T10:28:54;18.70;;;5.90;;
12271;SDS011;6198;51.446;6.698;2023-12-20T10:31:30;16.45;;;5.80;;
12271;SDS011;6198;51.446;6.698;2023-12-20T10:33:59;15.02;;;5.18;;
12271;SDS011;6198;51.446;6.698;2023-12-20T10:36:28;18.73;;;5.93;;
12271;SDS011;6198;51.446;6.698;2023-12-20T10:38:55;16.60;;;5.50;;
12271;SDS011;6198;51.446;6.698;2023-12-20T10:41:29;18.77;;;6.03;;
12271;SDS011;6198;51.446;6.698;2023-12-20T10:43:56;15.93;;;5.75;;
12271;SDS011;6198;51.446;6.698;2023-12-20T10:46:23;18.30;;;5.97;;
12271;SDS011;6198;51.446;6.698;2023-12-20T10:48:51;15.85;;;5.45;;
12271;SDS011;6198;51.446;6.698;2023-12-20T10:51:18;20.35;;;6.30;;
12271;SDS011;6198;51.446;6.698;2023-12-20T10:53:45;17.90;;;5.93;;
12271;SDS011;6198;51.446;6.698;2023-12-20T10:56:15;18.88;;;6.10;;
12271;SDS011;6198;51.446;6.698;2023-12-20T10:58:41;14.05;;;5.47;;
12271;SDS011;6198;51.446;6.698;2023-12-20T11:01:08;19.40;;;5.83;;
12271;SDS011;6198;51.446;6.698;2023-12-20T11:03:35;20.65;;;6.32;;
12271;SDS011;6198;51.446;6.698;2023-12-20T11:06:08;21.85;;;6.10;;
12271;SDS011;6198;51.446;6.698;2023-12-20T11:08:41;19.58;;;6.18;;
12271;SDS011;6198;51.446;6.698;2023-12-20T11:11:12;15.68;;;5.85;;
12271;SDS011;6198;51.446;6.698;2023-12-20T11:13:58;19.77;;;6.40;;
12271;SDS011;6198;51.446;6.698;2023-12-20T11:16:25;19.55;;;5.80;;
12271;SDS011;6198;51.446;6.698;2023-12-20T11:18:51;16.15;;;6.60;;
12271;SDS011;6198;51.446;6.698;2023-12-20T11:21:17;20.58;;;6.50;;
12271;SDS011;6198;51.446;6.698;2023-12-20T11:23:43;16.52;;;5.53;;
12271;SDS011;6198;51.446;6.698;2023-12-20T11:26:09;16.02;;;5.82;;
12271;SDS011;6198;51.446;6.698;2023-12-20T11:28:35;15.57;;;5.03;;
12271;SDS011;6198;51.446;6.698;2023-12-20T11:31:01;16.73;;;5.50;;
12271;SDS011;6198;51.446;6.698;2023-12-20T11:35:57;17.60;;;5.47;;
12271;SDS011;6198;51.446;6.698;2023-12-20T11:38:24;19.13;;;5.07;;
12271;SDS011;6198;51.446;6.698;2023-12-20T11:40:50;15.35;;;5.43;;
12271;SDS011;6198;51.446;6.698;2023-12-20T11:46:12;17.45;;;6.15;;
12271;SDS011;6198;51.446;6.698;2023-12-20T11:48:38;16.67;;;5.85;;
12271;SDS011;6198;51.446;6.698;2023-12-20T11:51:09;19.95;;;6.57;;
12271;SDS011;6198;51.446;6.698;2023-12-20T11:53:36;21.40;;;6.45;;
12271;SDS011;6198;51.446;6.698;2023-12-20T11:56:02;18.38;;;6.57;;
12271;SDS011;6198;51.446;6.698;2023-12-20T11:58:28;17.90;;;6.75;;
12271;SDS011;6198;51.446;6.698;2023-12-20T12:00:55;19.23;;;7.10;;
12271;SDS011;6198;51.446;6.698;2023-12-20T12:03:21;22.73;;;7.28;;
12271;SDS011;6198;51.446;6.698;2023-12-20T12:05:48;21.17;;;6.80;;
12271;SDS011;6198;51.446;6.698;2023-12-20T12:08:15;16.83;;;6.47;;
12271;SDS011;6198;51.446;6.698;2023-12-20T12:10:41;17.07;;;6.43;;
12271;SDS011;6198;51.446;6.698;2023-12-20T12:13:07;19.25;;;6.72;;
12271;SDS011;6198;51.446;6.698;2023-12-20T12:15:33;22.97;;;6.57;;
12271;SDS011;6198;51.446;6.698;2023-12-20T12:17:59;18.90;;;5.85;;
12271;SDS011;6198;51.446;6.698;2023-12-20T12:20:25;18.30;;;6.53;;
12271;SDS011;6198;51.446;6.698;2023-12-20T12:23:00;18.23;;;6.13;;
12271;SDS011;6198;51.446;6.698;2023-12-20T12:25:28;20.98;;;6.50;;
12271;SDS011;6198;51.446;6.698;2023-12-20T12:27:55;15.20;;;5.80;;
12271;SDS011;6198;51.446;6.698;2023-12-20T12:30:21;18.83;;;6.22;;
12271;SDS011;6198;51.446;6.698;2023-12-20T12:32:47;15.30;;;5.70;;
12271;SDS011;6198;51.446;6.698;2023-12-20T12:35:13;20.08;;;6.22;;
12271;SDS011;6198;51.446;6.698;2023-12-20T12:37:40;19.23;;;5.20;;
12271;SDS011;6198;51.446;6.698;2023-12-20T12:40:09;15.77;;;5.40;;
12271;SDS011;6198;51.446;6.698;2023-12-20T12:42:36;16.63;;;6.00;;
12271;SDS011;6198;51.446;6.698;2023-12-20T12:45:02;17.63;;;5.90;;
12271;SDS011;6198;51.446;6.698;2023-12-20T12:47:28;19.50;;;6.03;;
12271;SDS011;6198;51.446;6.698;2023-12-20T12:49:54;14.75;;;5.85;;
12271;SDS011;6198;51.446;6.698;2023-12-20T12:52:20;17.95;;;6.00;;
12271;SDS011;6198;51.446;6.698;2023-12-20T12:54:46;17.47;;;6.00;;
12271;SDS011;6198;51.446;6.698;2023-12-20T12:57:13;18.77;;;6.72;;
12271;SDS011;6198;51.446;6.698;2023-12-20T12:59:39;18.83;;;6.87;;
12271;SDS011;6198;51.446;6.698;2023-12-20T13:02:06;15.93;;;6.50;;
12271;SDS011;6198;51.446;6.698;2023-12-20T13:04:32;19.60;;;6.68;;
12271;SDS011;6198;51.446;6.698;2023-12-20T13:06:58;15.93;;;5.93;;
12271;SDS011;6198;51.446;6.698;2023-12-20T13:09:24;21.92;;;6.90;;
12271;SDS011;6198;51.446;6.698;2023-12-20T13:11:50;16.30;;;6.97;;
12271;SDS011;6198;51.446;6.698;2023-12-20T13:14:16;16.67;;;7.07;;
12271;SDS011;6198;51.446;6.698;2023-12-20T13:16:42;19.10;;;8.23;;
12271;SDS011;6198;51.446;6.698;2023-12-20T13:19:09;21.48;;;9.18;;
12271;SDS011;6198;51.446;6.698;2023-12-20T13:21:35;21.27;;;9.07;;
12271;SDS011;6198;51.446;6.698;2023-12-20T13:24:02;19.33;;;9.40;;
12271;SDS011;6198;51.446;6.698;2023-12-20T13:26:28;22.52;;;9.00;;
12271;SDS011;6198;51.446;6.698;2023-12-20T13:28:54;23.23;;;9.48;;
12271;SDS011;6198;51.446;6.698;2023-12-20T13:31:20;18.48;;;9.30;;
12271;SDS011;6198;51.446;6.698;2023-12-20T13:33:46;17.08;;;8.27;;
12271;SDS011;6198;51.446;6.698;2023-12-20T13:36:12;22.95;;;9.50;;
12271;SDS011;6198;51.446;6.698;2023-12-20T13:38:38;24.80;;;9.93;;
12271;SDS011;6198;51.446;6.698;2023-12-20T13:41:04;18.77;;;9.20;;
12271;SDS011;6198;51.446;6.698;2023-12-20T13:43:31;20.40;;;9.52;;
12271;SDS011;6198;51.446;6.698;2023-12-20T13:45:58;22.77;;;9.75;;
12271;SDS011;6198;51.446;6.698;2023-12-20T13:48:24;18.02;;;9.50;;
12271;SDS011;6198;51.446;6.698;2023-12-20T13:50:49;19.67;;;9.40;;
12271;SDS011;6198;51.446;6.698;2023-12-20T13:53:16;26.30;;;9.93;;
12271;SDS011;6198;51.446;6.698;2023-12-20T13:55:42;22.77;;;9.85;;
12271;SDS011;6198;51.446;6.698;2023-12-20T13:58:08;20.23;;;9.68;;
12271;SDS011;6198;51.446;6.698;2023-12-20T14:00:35;23.80;;;10.82;;
12271;SDS011;6198;51.446;6.698;2023-12-20T14:03:02;18.50;;;10.15;;
12271;SDS011;6198;51.446;6.698;2023-12-20T14:05:27;25.25;;;11.02;;
12271;SDS011;6198;51.446;6.698;2023-12-20T14:07:54;19.77;;;10.68;;
12271;SDS011;6198;51.446;6.698;2023-12-20T14:10:22;21.95;;;10.23;;
12271;SDS011;6198;51.446;6.698;2023-12-20T14:12:48;30.17;;;11.10;;
12271;SDS011;6198;51.446;6.698;2023-12-20T14:15:14;25.25;;;10.98;;
12271;SDS011;6198;51.446;6.698;2023-12-20T14:17:40;23.13;;;10.95;;
12271;SDS011;6198;51.446;6.698;2023-12-20T14:20:09;26.60;;;11.57;;
12271;SDS011;6198;51.446;6.698;2023-12-20T14:22:37;26.53;;;11.60;;
12271;SDS011;6198;51.446;6.698;2023-12-20T14:25:04;25.30;;;11.88;;
12271;SDS011;6198;51.446;6.698;2023-12-20T14:27:31;24.58;;;11.55;;
12271;SDS011;6198;51.446;6.698;2023-12-20T14:29:57;24.88;;;11.60;;
12271;SDS011;6198;51.446;6.698;2023-12-20T14:32:23;23.75;;;10.77;;
12271;SDS011;6198;51.446;6.698;2023-12-20T14:34:51;26.65;;;10.75;;
12271;SDS011;6198;51.446;6.698;2023-12-20T14:37:17;24.57;;;10.57;;
12271;SDS011;6198;51.446;6.698;2023-12-20T14:39:43;22.23;;;10.40;;
12271;SDS011;6198;51.446;6.698;2023-12-20T14:42:09;19.13;;;9.77;;
12271;SDS011;6198;51.446;6.698;2023-12-20T14:44:38;18.77;;;9.45;;